createdAt,value
2023-02-24T00:04:39.799Z,99636.91
2023-02-24T00:09:41.642Z,99633.66
2023-02-24T00:14:45.532Z,99628.44
2023-02-24T00:19:47.189Z,99625.69
2023-02-24T00:24:48.954Z,99609.19
2023-02-24T00:29:50.740Z,99609.44
2023-02-24T00:34:52.406Z,99605.41
2023-02-24T00:39:58.619Z,99605.13
2023-02-24T00:45:00.391Z,99608.81
2023-02-24T00:50:02.203Z,99611.00
2023-02-24T00:55:14.073Z,99593.94
2023-02-24T01:00:16.772Z,99589.59
2023-02-24T01:05:18.450Z,99580.78
2023-02-24T01:10:22.509Z,99571.59
2023-02-24T01:15:24.840Z,99573.22
2023-02-24T01:20:30.491Z,99569.00
2023-02-24T01:25:32.472Z,99572.69
2023-02-24T01:30:34.312Z,99557.00
2023-02-24T01:35:36.061Z,99556.03
2023-02-24T01:40:38.023Z,99554.03
2023-02-24T01:45:40.290Z,99549.41
2023-02-24T01:50:41.994Z,99558.22
2023-02-24T01:55:49.346Z,99540.94
2023-02-24T02:00:51.948Z,99535.63
2023-02-24T02:05:59.293Z,99530.75
2023-02-24T02:11:06.382Z,99526.13
2023-02-24T02:16:35.180Z,99519.09
2023-02-24T02:22:02.876Z,99515.72
2023-02-24T02:27:21.272Z,99505.91
2023-02-24T02:32:52.270Z,99500.78
2023-02-24T02:38:05.166Z,99506.31
2023-02-24T02:43:18.854Z,99490.13
2023-02-24T02:48:34.611Z,99491.41
2023-02-24T02:53:47.260Z,99488.47
2023-02-24T02:58:53.874Z,99477.50
2023-02-24T03:04:02.200Z,99481.53
2023-02-24T03:09:16.162Z,99475.94
2023-02-24T03:14:24.073Z,99472.59
2023-02-24T03:19:37.443Z,99467.41
2023-02-24T03:24:44.392Z,99457.97
2023-02-24T03:30:00.490Z,99450.03
2023-02-24T03:35:17.419Z,99449.09
2023-02-24T03:40:20.982Z,99450.59
2023-02-24T03:45:24.048Z,99444.66
2023-02-24T03:50:31.770Z,99436.34
2023-02-24T03:56:15.938Z,99429.38
2023-02-24T04:01:36.610Z,99423.00
2023-02-24T04:06:58.133Z,99417.31
2023-02-24T04:12:14.318Z,99412.59
2023-02-24T04:17:23.708Z,99402.19
2023-02-24T04:22:27.262Z,99401.59
2023-02-24T04:27:29.105Z,99399.25
2023-02-24T04:32:31.641Z,99394.06
2023-02-24T04:37:37.388Z,99391.88
2023-02-24T04:42:49.236Z,99386.78
2023-02-24T04:47:56.387Z,99383.13
2023-02-24T04:53:01.128Z,99373.16
2023-02-24T04:58:02.951Z,99376.44
2023-02-24T05:03:06.574Z,99361.91
2023-02-24T05:08:10.153Z,99363.47
2023-02-24T05:13:16.024Z,99358.59
2023-02-24T05:18:17.778Z,99355.34
2023-02-24T05:23:19.507Z,99349.38
2023-02-24T05:28:23.316Z,99342.88
2023-02-24T05:33:24.978Z,99334.97
2023-02-24T05:38:26.636Z,99331.38
2023-02-24T05:43:31.381Z,99325.94
2023-02-24T05:48:35.487Z,99327.69
2023-02-24T05:53:37.386Z,99321.84
2023-02-24T05:58:45.248Z,99322.09
2023-02-24T06:03:48.133Z,99320.41
2023-02-24T06:08:50.152Z,99320.09
2023-02-24T06:13:57.794Z,99322.75
2023-02-24T06:18:59.647Z,99308.06
2023-02-24T06:24:02.049Z,99306.56
2023-02-24T06:29:05.617Z,99309.53
2023-02-24T06:34:10.630Z,99306.72
2023-02-24T06:39:14.722Z,99307.47
2023-02-24T06:44:16.499Z,99314.31
2023-02-24T06:49:18.171Z,99302.88
2023-02-24T06:54:19.864Z,99313.03
2023-02-24T06:59:28.713Z,99309.25
2023-02-24T07:04:30.556Z,99317.66
2023-02-24T07:09:32.336Z,99316.06
2023-02-24T07:14:37.052Z,99300.47
2023-02-24T07:19:38.859Z,99305.41
2023-02-24T07:24:46.362Z,99295.31
2023-02-24T07:29:53.617Z,99287.22
2023-02-24T07:34:55.463Z,99280.47
2023-02-24T07:39:57.126Z,99283.28
2023-02-24T07:44:58.960Z,99275.75
2023-02-24T07:50:00.786Z,99265.22
2023-02-24T07:55:03.301Z,99279.59
2023-02-24T08:00:19.723Z,99273.03
2023-02-24T08:05:23.080Z,99272.63
2023-02-24T08:10:24.875Z,99277.81
2023-02-24T08:15:34.107Z,99274.63
2023-02-24T08:20:51.325Z,99262.22
2023-02-24T08:25:53.901Z,99265.34
2023-02-24T08:31:04.768Z,99246.94
2023-02-24T08:36:06.665Z,99243.28
2023-02-24T08:41:21.617Z,99242.50
2023-02-24T08:46:33.019Z,99247.28
2023-02-24T08:51:36.463Z,99237.16
2023-02-24T08:56:43.703Z,99237.31
2023-02-24T09:02:04.205Z,99219.69
2023-02-24T09:07:15.484Z,99213.38
2023-02-24T09:12:26.072Z,99201.19
2023-02-24T09:17:53.559Z,99200.88
2023-02-24T09:23:08.962Z,99190.72
2023-02-24T09:28:18.044Z,99188.00
2023-02-24T09:33:41.914Z,99168.78
2023-02-24T09:39:01.536Z,99167.41
2023-02-24T09:44:18.611Z,99150.25
2023-02-24T09:49:24.434Z,99136.38
2023-02-24T09:54:35.442Z,99130.63
2023-02-24T10:00:01.449Z,99119.97
2023-02-24T10:05:38.596Z,99116.72
2023-02-24T10:11:01.052Z,99109.81
2023-02-24T10:16:07.376Z,99105.53
2023-02-24T10:21:30.838Z,99107.00
2023-02-24T10:27:01.192Z,99093.97
2023-02-24T10:32:34.410Z,99100.75
2023-02-24T10:37:36.458Z,99090.50
2023-02-24T10:42:50.954Z,99093.44
2023-02-24T10:47:57.402Z,99088.44
2023-02-24T10:53:11.487Z,99092.75
2023-02-24T10:59:01.686Z,99077.16
2023-02-24T11:04:21.953Z,99064.09
2023-02-24T11:09:29.214Z,99061.31
2023-02-24T11:14:50.694Z,99051.59
2023-02-24T11:20:15.765Z,99039.69
2023-02-24T11:25:37.532Z,99028.81
2023-02-24T11:30:48.307Z,99018.09
2023-02-24T11:36:27.822Z,99004.53
2023-02-24T11:41:37.978Z,99003.06
2023-02-24T11:47:00.714Z,98983.66
2023-02-24T11:52:07.150Z,98971.34
2023-02-24T11:57:16.943Z,98961.19
2023-02-24T12:02:41.844Z,98940.97
2023-02-24T12:07:52.671Z,98927.00
2023-02-24T12:13:17.765Z,98924.16
2023-02-24T12:18:31.357Z,98908.50
2023-02-24T12:23:39.629Z,98914.31
2023-02-24T12:29:02.771Z,98912.47
2023-02-24T12:34:23.103Z,98911.78
2023-02-24T12:39:46.039Z,98902.06
2023-02-24T12:44:59.226Z,98887.84
2023-02-24T12:50:16.746Z,98886.25
2023-02-24T12:55:27.693Z,98875.84
2023-02-24T13:00:41.925Z,98863.66
2023-02-24T13:05:58.972Z,98858.53
2023-02-24T13:11:15.493Z,98840.47
2023-02-24T13:16:34.842Z,98836.63
2023-02-24T13:21:36.752Z,98825.34
2023-02-24T13:26:38.613Z,98820.97
2023-02-24T13:31:46.975Z,98811.06
2023-02-24T13:36:50.622Z,98799.53
2023-02-24T13:42:27.654Z,98787.31
2023-02-24T13:47:48.019Z,98782.19
2023-02-24T13:53:02.898Z,98780.97
2023-02-24T13:58:34.267Z,98779.28
2023-02-24T14:03:41.390Z,98770.72
2023-02-24T14:08:51.143Z,98765.66
2023-02-24T14:13:55.715Z,98768.00
2023-02-24T14:19:02.530Z,98769.13
2023-02-24T14:24:12.337Z,98759.66
2023-02-24T14:29:28.187Z,98757.66
2023-02-24T14:34:55.919Z,98757.06
2023-02-24T14:46:25.416Z,98749.53
2023-02-24T14:51:36.458Z,98745.38
2023-02-24T14:56:38.254Z,98755.63
2023-02-24T15:01:45.940Z,98748.63
2023-02-24T15:06:49.185Z,98748.34
2023-02-24T15:11:53.488Z,98744.66
2023-02-24T15:17:00.501Z,98745.56
2023-02-24T15:22:02.160Z,98748.13
2023-02-24T15:27:21.760Z,98741.09
2023-02-24T15:32:26.037Z,98739.75
2023-02-24T15:37:33.245Z,98739.72
2023-02-24T15:42:35.677Z,98732.66
2023-02-24T15:47:45.513Z,98740.53
2023-02-24T15:52:47.602Z,98734.53
2023-02-24T15:57:58.999Z,98734.88
2023-02-24T16:03:00.910Z,98730.00
2023-02-24T16:08:04.320Z,98724.69
2023-02-24T16:13:18.950Z,98719.88
2023-02-24T16:18:29.718Z,98723.22
2023-02-24T16:23:39.000Z,98720.97
2023-02-24T16:28:40.853Z,98722.72
2023-02-24T16:33:54.110Z,98722.34
2023-02-24T16:39:05.829Z,98713.50
2023-02-24T16:44:23.357Z,98720.84
2023-02-24T16:49:26.119Z,98722.28
2023-02-24T16:54:29.495Z,98714.13
2023-02-24T16:59:52.817Z,98713.03
2023-02-24T17:04:54.613Z,98711.78
2023-02-24T17:09:58.361Z,98705.16
2023-02-24T17:15:00.272Z,98714.41
2023-02-24T17:20:12.504Z,98712.13
2023-02-24T17:25:20.002Z,98717.59
2023-02-24T17:30:25.728Z,98731.84
2023-02-24T17:41:55.202Z,98719.25
2023-02-24T17:46:57.004Z,98717.72
2023-02-24T17:51:58.798Z,98715.22
2023-02-24T17:57:02.738Z,98710.78
2023-02-24T18:02:13.635Z,98711.78
2023-02-24T18:07:18.106Z,98700.59
2023-02-24T18:12:21.056Z,98694.16
2023-02-24T18:17:26.002Z,98693.69
2023-02-24T18:22:27.801Z,98701.19
2023-02-24T18:27:30.260Z,98703.03
2023-02-24T18:32:34.605Z,98708.84
2023-02-24T18:37:38.404Z,98691.53
2023-02-24T18:42:49.144Z,98695.63
2023-02-24T18:47:55.920Z,98703.97
2023-02-24T18:52:57.747Z,98696.84
2023-02-24T18:57:59.463Z,98698.09
2023-02-24T19:03:06.346Z,98707.81
2023-02-24T19:08:18.866Z,98700.47
2023-02-24T19:13:22.708Z,98699.22
2023-02-24T19:18:25.450Z,98701.19
2023-02-24T19:23:28.450Z,98698.69
2023-02-24T19:28:32.538Z,98706.78
2023-02-24T19:33:36.569Z,98703.16
2023-02-24T19:38:41.400Z,98713.88
2023-02-24T19:43:44.297Z,98708.50
2023-02-24T19:48:46.374Z,98697.50
2023-02-24T19:53:51.473Z,98691.31
2023-02-24T19:58:54.810Z,98697.00
2023-02-24T20:03:59.945Z,98688.31
2023-02-24T20:09:02.667Z,98695.00
2023-02-24T20:14:05.321Z,98696.59
2023-02-24T20:19:09.361Z,98701.63
2023-02-24T20:24:14.279Z,98703.53
2023-02-24T20:29:18.293Z,98706.84
2023-02-24T20:34:20.037Z,98699.25
2023-02-24T20:39:25.107Z,98697.53
2023-02-24T20:44:27.158Z,98701.53
2023-02-24T20:49:28.862Z,98701.78
2023-02-24T20:54:30.518Z,98705.44
2023-02-24T20:59:32.234Z,98718.16
2023-02-24T21:04:33.903Z,98727.94
2023-02-24T21:09:37.304Z,98717.31
2023-02-24T21:14:39.149Z,98712.16
2023-02-24T21:19:40.888Z,98726.09
2023-02-24T21:24:42.937Z,98743.66
2023-02-24T21:29:45.286Z,98744.97
2023-02-24T21:34:47.058Z,98752.16
2023-02-24T21:39:49.261Z,98761.94
2023-02-24T21:44:51.224Z,98752.59
2023-02-24T21:49:52.996Z,98755.66
2023-02-24T21:54:54.677Z,98753.72
2023-02-24T21:59:56.938Z,98751.06
2023-02-24T22:04:58.601Z,98754.41
2023-02-24T22:10:00.257Z,98745.63
2023-02-24T22:15:01.908Z,98759.94
2023-02-24T22:20:08.627Z,98758.16
2023-02-24T22:25:10.912Z,98763.66
2023-02-24T22:30:12.923Z,98773.03
2023-02-24T22:35:14.621Z,98776.03
2023-02-24T22:40:17.683Z,98804.88
2023-02-24T22:45:20.146Z,98784.50
2023-02-24T22:50:26.032Z,98775.44
2023-02-24T22:55:29.992Z,98785.63
2023-02-24T23:00:31.788Z,98785.25
2023-02-24T23:05:33.460Z,98793.84
2023-02-24T23:10:35.131Z,98791.25
2023-02-24T23:15:40.844Z,98794.69
2023-02-24T23:20:42.738Z,98793.09
2023-02-24T23:25:51.320Z,98802.84
2023-02-24T23:30:54.182Z,98804.28
2023-02-24T23:35:56.002Z,98809.59
2023-02-24T23:40:57.662Z,98823.22
2023-02-24T23:46:03.617Z,98822.66
2023-02-24T23:51:07.745Z,98826.44
2023-02-24T23:56:14.037Z,98831.25
